sensor_id;sensor_type;location;lat;lon;timestamp;temperature;humidity
24636;DHT22;12772;49.794;10.024;2022-10-04T00:02:32;12.00;52.40
24636;DHT22;12772;49.794;10.024;2022-10-04T00:06:36;11.60;51.80
24636;DHT22;12772;49.794;10.024;2022-10-04T00:10:39;12.00;52.10
24636;DHT22;12772;49.794;10.024;2022-10-04T00:14:42;11.50;51.70
24636;DHT22;12772;49.794;10.024;2022-10-04T00:18:44;11.80;52.30
24636;DHT22;12772;49.794;10.024;2022-10-04T00:27:25;11.70;52.50
24636;DHT22;12772;49.794;10.024;2022-10-04T00:31:27;11.80;52.90
24636;DHT22;12772;49.794;10.024;2022-10-04T00:43:41;11.10;52.20
24636;DHT22;12772;49.794;10.024;2022-10-04T00:55:58;11.50;52.40
24636;DHT22;12772;49.794;10.024;2022-10-04T01:00:13;11.30;52.10
24636;DHT22;12772;49.794;10.024;2022-10-04T01:04:27;11.50;52.30
24636;DHT22;12772;49.794;10.024;2022-10-04T01:08:42;11.40;52.00
24636;DHT22;12772;49.794;10.024;2022-10-04T01:17:02;11.40;52.40
24636;DHT22;12772;49.794;10.024;2022-10-04T01:25:41;11.40;52.80
24636;DHT22;12772;49.794;10.024;2022-10-04T01:29:43;11.30;53.00
24636;DHT22;12772;49.794;10.024;2022-10-04T01:33:45;10.90;52.60
24636;DHT22;12772;49.794;10.024;2022-10-04T01:37:47;11.00;52.80
24636;DHT22;12772;49.794;10.024;2022-10-04T01:42:16;11.20;53.10
24636;DHT22;12772;49.794;10.024;2022-10-04T01:46:26;10.90;53.00
24636;DHT22;12772;49.794;10.024;2022-10-04T01:50:41;11.10;53.30
24636;DHT22;12772;49.794;10.024;2022-10-04T01:54:47;11.10;53.20
24636;DHT22;12772;49.794;10.024;2022-10-04T01:58:54;11.10;53.40
24636;DHT22;12772;49.794;10.024;2022-10-04T02:03:11;11.00;53.20
24636;DHT22;12772;49.794;10.024;2022-10-04T02:07:15;11.00;53.30
24636;DHT22;12772;49.794;10.024;2022-10-04T02:11:19;10.70;53.00
24636;DHT22;12772;49.794;10.024;2022-10-04T02:15:23;10.80;53.20
24636;DHT22;12772;49.794;10.024;2022-10-04T02:19:35;11.00;53.40
24636;DHT22;12772;49.794;10.024;2022-10-04T02:23:38;10.90;53.20
24636;DHT22;12772;49.794;10.024;2022-10-04T02:27:41;10.70;53.40
24636;DHT22;12772;49.794;10.024;2022-10-04T02:31:44;10.30;53.20
24636;DHT22;12772;49.794;10.024;2022-10-04T02:36:04;10.30;53.30
24636;DHT22;12772;49.794;10.024;2022-10-04T02:40:12;10.60;53.40
24636;DHT22;12772;49.794;10.024;2022-10-04T02:44:19;10.70;53.60
24636;DHT22;12772;49.794;10.024;2022-10-04T02:48:47;10.70;53.90
24636;DHT22;12772;49.794;10.024;2022-10-04T02:57:32;10.60;53.80
24636;DHT22;12772;49.794;10.024;2022-10-04T03:01:51;10.00;53.90
24636;DHT22;12772;49.794;10.024;2022-10-04T03:06:03;10.00;54.00
24636;DHT22;12772;49.794;10.024;2022-10-04T03:10:10;10.30;54.30
24636;DHT22;12772;49.794;10.024;2022-10-04T03:14:16;9.80;55.50
24636;DHT22;12772;49.794;10.024;2022-10-04T03:18:20;10.00;54.40
24636;DHT22;12772;49.794;10.024;2022-10-04T03:22:23;10.30;54.50
24636;DHT22;12772;49.794;10.024;2022-10-04T03:26:44;9.80;55.50
24636;DHT22;12772;49.794;10.024;2022-10-04T03:30:47;10.20;54.90
24636;DHT22;12772;49.794;10.024;2022-10-04T03:34:59;9.90;55.90
24636;DHT22;12772;49.794;10.024;2022-10-04T03:39:06;10.30;55.20
24636;DHT22;12772;49.794;10.024;2022-10-04T03:43:11;10.40;55.10
24636;DHT22;12772;49.794;10.024;2022-10-04T03:47:26;10.30;54.90
24636;DHT22;12772;49.794;10.024;2022-10-04T03:51:30;10.40;54.90
24636;DHT22;12772;49.794;10.024;2022-10-04T03:55:36;10.30;55.00
24636;DHT22;12772;49.794;10.024;2022-10-04T03:59:39;10.20;55.00
24636;DHT22;12772;49.794;10.024;2022-10-04T04:04:10;10.50;55.30
24636;DHT22;12772;49.794;10.024;2022-10-04T04:08:36;10.30;54.80
24636;DHT22;12772;49.794;10.024;2022-10-04T04:12:45;10.20;54.60
24636;DHT22;12772;49.794;10.024;2022-10-04T04:16:51;10.20;55.20
24636;DHT22;12772;49.794;10.024;2022-10-04T04:20:54;9.90;56.60
24636;DHT22;12772;49.794;10.024;2022-10-04T04:25:04;9.70;56.60
24636;DHT22;12772;49.794;10.024;2022-10-04T04:29:20;10.60;56.50
24636;DHT22;12772;49.794;10.024;2022-10-04T04:33:36;10.10;56.20
24636;DHT22;12772;49.794;10.024;2022-10-04T04:37:41;10.20;56.20
24636;DHT22;12772;49.794;10.024;2022-10-04T04:41:43;10.40;56.30
24636;DHT22;12772;49.794;10.024;2022-10-04T04:45:48;10.30;56.40
24636;DHT22;12772;49.794;10.024;2022-10-04T04:49:50;10.00;56.10
24636;DHT22;12772;49.794;10.024;2022-10-04T04:53:54;10.00;55.60
24636;DHT22;12772;49.794;10.024;2022-10-04T04:57:57;10.10;56.10
24636;DHT22;12772;49.794;10.024;2022-10-04T05:02:00;9.80;57.40
24636;DHT22;12772;49.794;10.024;2022-10-04T05:06:02;10.20;56.30
24636;DHT22;12772;49.794;10.024;2022-10-04T05:14:32;10.10;56.20
24636;DHT22;12772;49.794;10.024;2022-10-04T05:18:34;9.60;57.20
24636;DHT22;12772;49.794;10.024;2022-10-04T05:22:37;9.60;57.10
24636;DHT22;12772;49.794;10.024;2022-10-04T05:26:42;9.80;58.00
24636;DHT22;12772;49.794;10.024;2022-10-04T05:31:03;9.50;57.60
24636;DHT22;12772;49.794;10.024;2022-10-04T05:35:18;9.90;58.10
24636;DHT22;12772;49.794;10.024;2022-10-04T05:44:00;9.80;58.00
24636;DHT22;12772;49.794;10.024;2022-10-04T05:48:06;9.80;58.00
24636;DHT22;12772;49.794;10.024;2022-10-04T05:52:33;10.00;57.00
24636;DHT22;12772;49.794;10.024;2022-10-04T06:05:43;9.90;58.10
24636;DHT22;12772;49.794;10.024;2022-10-04T06:23:01;10.00;57.90
24636;DHT22;12772;49.794;10.024;2022-10-04T06:27:11;9.80;58.60
24636;DHT22;12772;49.794;10.024;2022-10-04T06:53:13;10.30;57.70
24636;DHT22;12772;49.794;10.024;2022-10-04T06:57:41;10.50;58.00
24636;DHT22;12772;49.794;10.024;2022-10-04T07:01:54;10.50;57.50
24636;DHT22;12772;49.794;10.024;2022-10-04T07:14:24;10.20;57.20
24636;DHT22;12772;49.794;10.024;2022-10-04T07:23:04;10.70;57.70
24636;DHT22;12772;49.794;10.024;2022-10-04T07:27:16;10.80;57.90
24636;DHT22;12772;49.794;10.024;2022-10-04T07:31:28;10.80;57.90
24636;DHT22;12772;49.794;10.024;2022-10-04T07:35:42;11.10;58.20
24636;DHT22;12772;49.794;10.024;2022-10-04T07:39:57;10.80;57.90
24636;DHT22;12772;49.794;10.024;2022-10-04T07:44:12;10.70;57.70
24636;DHT22;12772;49.794;10.024;2022-10-04T07:48:18;11.10;58.20
24636;DHT22;12772;49.794;10.024;2022-10-04T07:56:59;11.20;58.30
24636;DHT22;12772;49.794;10.024;2022-10-04T08:01:20;11.30;58.40
24636;DHT22;12772;49.794;10.024;2022-10-04T08:05:38;11.30;58.40
24636;DHT22;12772;49.794;10.024;2022-10-04T08:09:50;11.40;59.30
24636;DHT22;12772;49.794;10.024;2022-10-04T08:18:31;11.50;58.60
24636;DHT22;12772;49.794;10.024;2022-10-04T08:22:42;11.70;58.90
24636;DHT22;12772;49.794;10.024;2022-10-04T08:27:21;11.80;59.00
24636;DHT22;12772;49.794;10.024;2022-10-04T08:36:12;12.10;59.30
24636;DHT22;12772;49.794;10.024;2022-10-04T09:06:09;13.20;60.40
24636;DHT22;12772;49.794;10.024;2022-10-04T09:10:31;13.30;60.40
24636;DHT22;12772;49.794;10.024;2022-10-04T09:15:06;13.40;60.10
24636;DHT22;12772;49.794;10.024;2022-10-04T09:28:27;14.00;59.30
24636;DHT22;12772;49.794;10.024;2022-10-04T09:32:52;14.10;58.10
24636;DHT22;12772;49.794;10.024;2022-10-04T09:50:13;14.80;56.50
24636;DHT22;12772;49.794;10.024;2022-10-04T09:59:16;15.10;54.80
24636;DHT22;12772;49.794;10.024;2022-10-04T10:03:30;15.30;54.50
24636;DHT22;12772;49.794;10.024;2022-10-04T10:07:54;15.50;54.80
24636;DHT22;12772;49.794;10.024;2022-10-04T10:12:19;15.70;53.90
24636;DHT22;12772;49.794;10.024;2022-10-04T10:17:06;15.90;53.10
24636;DHT22;12772;49.794;10.024;2022-10-04T10:26:18;16.30;52.30
24636;DHT22;12772;49.794;10.024;2022-10-04T10:39:27;16.90;51.50
24636;DHT22;12772;49.794;10.024;2022-10-04T10:48:34;17.20;50.00
24636;DHT22;12772;49.794;10.024;2022-10-04T11:01:58;17.60;49.00
24636;DHT22;12772;49.794;10.024;2022-10-04T11:11:02;17.90;48.10
24636;DHT22;12772;49.794;10.024;2022-10-04T11:20:04;18.30;46.70
24636;DHT22;12772;49.794;10.024;2022-10-04T11:24:45;18.50;45.90
24636;DHT22;12772;49.794;10.024;2022-10-04T11:33:47;18.80;45.00
24636;DHT22;12772;49.794;10.024;2022-10-04T11:38:05;19.00;45.20
24636;DHT22;12772;49.794;10.024;2022-10-04T11:46:31;19.30;44.50
24636;DHT22;12772;49.794;10.024;2022-10-04T12:00:17;19.80;43.00
24636;DHT22;12772;49.794;10.024;2022-10-04T12:21:47;20.50;37.60
24636;DHT22;12772;49.794;10.024;2022-10-04T12:26:11;20.50;37.00
24636;DHT22;12772;49.794;10.024;2022-10-04T12:34:55;20.70;37.20
24636;DHT22;12772;49.794;10.024;2022-10-04T12:43:14;20.80;36.30
24636;DHT22;12772;49.794;10.024;2022-10-04T12:52:08;20.90;35.10
24636;DHT22;12772;49.794;10.024;2022-10-04T12:56:20;21.00;35.20
24636;DHT22;12772;49.794;10.024;2022-10-04T13:00:34;21.00;35.20
24636;DHT22;12772;49.794;10.024;2022-10-04T13:04:47;21.20;34.90
24636;DHT22;12772;49.794;10.024;2022-10-04T13:09:13;21.20;35.40
24636;DHT22;12772;49.794;10.024;2022-10-04T13:18:12;21.40;35.30
24636;DHT22;12772;49.794;10.024;2022-10-04T13:27:00;21.70;35.10
24636;DHT22;12772;49.794;10.024;2022-10-04T13:31:26;21.70;35.10
24636;DHT22;12772;49.794;10.024;2022-10-04T13:57:56;21.60;33.10
24636;DHT22;12772;49.794;10.024;2022-10-04T14:02:28;21.60;32.50
24636;DHT22;12772;49.794;10.024;2022-10-04T14:11:13;21.60;33.20
24636;DHT22;12772;49.794;10.024;2022-10-04T14:20:29;21.60;32.90
24636;DHT22;12772;49.794;10.024;2022-10-04T14:29:13;21.40;33.10
24636;DHT22;12772;49.794;10.024;2022-10-04T14:47:10;21.30;33.80
24636;DHT22;12772;49.794;10.024;2022-10-04T15:00:20;21.00;33.60
24636;DHT22;12772;49.794;10.024;2022-10-04T15:17:39;20.70;34.80
24636;DHT22;12772;49.794;10.024;2022-10-04T15:26:03;20.70;34.20
24636;DHT22;12772;49.794;10.024;2022-10-04T15:30:19;20.60;33.80
24636;DHT22;12772;49.794;10.024;2022-10-04T15:34:35;20.60;34.60
24636;DHT22;12772;49.794;10.024;2022-10-04T15:43:15;20.50;34.90
24636;DHT22;12772;49.794;10.024;2022-10-04T15:52:06;20.50;34.60
24636;DHT22;12772;49.794;10.024;2022-10-04T16:09:41;20.20;36.70
24636;DHT22;12772;49.794;10.024;2022-10-04T16:22:36;19.90;38.00
24636;DHT22;12772;49.794;10.024;2022-10-04T16:35:23;19.60;39.20
24636;DHT22;12772;49.794;10.024;2022-10-04T16:44:03;19.40;40.30
24636;DHT22;12772;49.794;10.024;2022-10-04T16:57:22;19.10;40.30
24636;DHT22;12772;49.794;10.024;2022-10-04T17:01:38;19.00;41.30
24636;DHT22;12772;49.794;10.024;2022-10-04T17:05:53;18.80;42.10
24636;DHT22;12772;49.794;10.024;2022-10-04T17:23:44;18.30;44.20
24636;DHT22;12772;49.794;10.024;2022-10-04T17:28:18;18.10;44.20
24636;DHT22;12772;49.794;10.024;2022-10-04T17:32:30;18.00;44.50
24636;DHT22;12772;49.794;10.024;2022-10-04T17:36:43;17.90;45.10
24636;DHT22;12772;49.794;10.024;2022-10-04T17:40:58;17.70;45.10
24636;DHT22;12772;49.794;10.024;2022-10-04T17:50:00;17.40;45.00
24636;DHT22;12772;49.794;10.024;2022-10-04T17:59:25;17.20;45.10
24636;DHT22;12772;49.794;10.024;2022-10-04T18:03:39;17.00;45.40
24636;DHT22;12772;49.794;10.024;2022-10-04T18:13:01;16.90;45.80
24636;DHT22;12772;49.794;10.024;2022-10-04T18:16:51;16.90;46.00
24636;DHT22;12772;49.794;10.024;2022-10-04T18:25:18;16.80;46.50
24636;DHT22;12772;49.794;10.024;2022-10-04T18:29:39;16.70;46.70
24636;DHT22;12772;49.794;10.024;2022-10-04T18:37:44;16.60;47.10
24636;DHT22;12772;49.794;10.024;2022-10-04T18:42:14;16.50;47.00
24636;DHT22;12772;49.794;10.024;2022-10-04T18:46:19;16.50;47.10
24636;DHT22;12772;49.794;10.024;2022-10-04T18:50:35;16.40;47.30
24636;DHT22;12772;49.794;10.024;2022-10-04T18:55:06;16.30;47.30
24636;DHT22;12772;49.794;10.024;2022-10-04T18:59:33;16.30;47.50
24636;DHT22;12772;49.794;10.024;2022-10-04T19:04:02;16.20;47.60
24636;DHT22;12772;49.794;10.024;2022-10-04T19:18:07;16.00;48.20
24636;DHT22;12772;49.794;10.024;2022-10-04T19:21:49;15.90;48.30
24636;DHT22;12772;49.794;10.024;2022-10-04T19:26:09;15.90;48.50
24636;DHT22;12772;49.794;10.024;2022-10-04T19:30:24;15.80;49.40
24636;DHT22;12772;49.794;10.024;2022-10-04T19:38:59;15.80;48.90
24636;DHT22;12772;49.794;10.024;2022-10-04T19:43:28;15.70;48.90
24636;DHT22;12772;49.794;10.024;2022-10-04T19:47:51;15.70;49.00
24636;DHT22;12772;49.794;10.024;2022-10-04T19:52:18;15.60;49.10
24636;DHT22;12772;49.794;10.024;2022-10-04T19:56:26;15.60;49.10
24636;DHT22;12772;49.794;10.024;2022-10-04T20:00:29;15.50;49.20
24636;DHT22;12772;49.794;10.024;2022-10-04T20:04:32;15.50;49.20
24636;DHT22;12772;49.794;10.024;2022-10-04T20:08:55;15.50;49.30
24636;DHT22;12772;49.794;10.024;2022-10-04T20:17:31;15.40;49.30
24636;DHT22;12772;49.794;10.024;2022-10-04T20:21:34;15.40;49.70
24636;DHT22;12772;49.794;10.024;2022-10-04T20:33:52;15.30;49.70
24636;DHT22;12772;49.794;10.024;2022-10-04T20:42:03;15.20;49.60
24636;DHT22;12772;49.794;10.024;2022-10-04T20:46:24;15.10;49.50
24636;DHT22;12772;49.794;10.024;2022-10-04T20:50:30;15.00;50.10
24636;DHT22;12772;49.794;10.024;2022-10-04T20:54:34;15.00;49.40
24636;DHT22;12772;49.794;10.024;2022-10-04T20:58:36;15.00;49.40
24636;DHT22;12772;49.794;10.024;2022-10-04T21:02:40;14.90;49.30
24636;DHT22;12772;49.794;10.024;2022-10-04T21:06:59;14.80;49.20
24636;DHT22;12772;49.794;10.024;2022-10-04T21:23:35;14.70;49.10
24636;DHT22;12772;49.794;10.024;2022-10-04T21:27:39;14.70;49.50
24636;DHT22;12772;49.794;10.024;2022-10-04T21:31:43;14.60;49.60
24636;DHT22;12772;49.794;10.024;2022-10-04T21:35:48;14.60;49.80
24636;DHT22;12772;49.794;10.024;2022-10-04T21:39:51;14.50;49.80
24636;DHT22;12772;49.794;10.024;2022-10-04T21:43:53;14.50;49.70
24636;DHT22;12772;49.794;10.024;2022-10-04T21:47:55;14.50;49.80
24636;DHT22;12772;49.794;10.024;2022-10-04T21:51:57;14.40;49.70
24636;DHT22;12772;49.794;10.024;2022-10-04T21:55:59;14.40;49.70
24636;DHT22;12772;49.794;10.024;2022-10-04T22:00:01;14.30;49.80
24636;DHT22;12772;49.794;10.024;2022-10-04T22:04:03;14.20;49.90
24636;DHT22;12772;49.794;10.024;2022-10-04T22:08:05;14.20;49.90
24636;DHT22;12772;49.794;10.024;2022-10-04T22:12:07;14.10;50.00
24636;DHT22;12772;49.794;10.024;2022-10-04T22:16:09;14.00;50.20
24636;DHT22;12772;49.794;10.024;2022-10-04T22:20:11;13.90;50.30
24636;DHT22;12772;49.794;10.024;2022-10-04T22:24:20;13.90;50.60
24636;DHT22;12772;49.794;10.024;2022-10-04T22:28:23;13.90;50.80
24636;DHT22;12772;49.794;10.024;2022-10-04T22:32:27;13.80;50.90
24636;DHT22;12772;49.794;10.024;2022-10-04T22:36:37;13.80;51.10
24636;DHT22;12772;49.794;10.024;2022-10-04T22:40:39;13.80;51.70
24636;DHT22;12772;49.794;10.024;2022-10-04T22:44:41;13.70;52.00
24636;DHT22;12772;49.794;10.024;2022-10-04T22:48:45;13.70;52.30
24636;DHT22;12772;49.794;10.024;2022-10-04T22:52:47;13.70;52.60
24636;DHT22;12772;49.794;10.024;2022-10-04T22:56:50;13.70;52.60
24636;DHT22;12772;49.794;10.024;2022-10-04T23:00:54;13.70;52.60
24636;DHT22;12772;49.794;10.024;2022-10-04T23:05:19;13.70;52.60
24636;DHT22;12772;49.794;10.024;2022-10-04T23:09:20;13.70;52.70
24636;DHT22;12772;49.794;10.024;2022-10-04T23:13:23;13.70;52.70
24636;DHT22;12772;49.794;10.024;2022-10-04T23:17:31;13.70;52.70
24636;DHT22;12772;49.794;10.024;2022-10-04T23:21:36;13.70;52.60
24636;DHT22;12772;49.794;10.024;2022-10-04T23:25:39;13.70;52.60
24636;DHT22;12772;49.794;10.024;2022-10-04T23:29:46;13.70;52.50
24636;DHT22;12772;49.794;10.024;2022-10-04T23:33:48;13.70;52.40
24636;DHT22;12772;49.794;10.024;2022-10-04T23:37:51;13.70;52.30
24636;DHT22;12772;49.794;10.024;2022-10-04T23:41:54;13.70;52.30
24636;DHT22;12772;49.794;10.024;2022-10-04T23:45:57;13.70;52.40
24636;DHT22;12772;49.794;10.024;2022-10-04T23:50:00;13.60;52.10
24636;DHT22;12772;49.794;10.024;2022-10-04T23:54:02;13.60;52.20
24636;DHT22;12772;49.794;10.024;2022-10-04T23:58:14;13.50;52.20
